createdAt,value
2022-08-09T00:00:12.100Z,17.06
2022-08-09T00:01:10.693Z,17.04
2022-08-09T00:02:09.018Z,17.03
2022-08-09T00:04:00.621Z,17.01
2022-08-09T00:04:15.340Z,17.00
2022-08-09T00:06:18.917Z,16.98
2022-08-09T00:06:18.957Z,16.96
2022-08-09T00:07:10.791Z,16.95
2022-08-09T00:08:10.085Z,16.93
2022-08-09T00:09:08.698Z,16.92
2022-08-09T00:10:08.837Z,16.91
2022-08-09T00:11:24.816Z,16.88
2022-08-09T00:12:15.422Z,16.85
2022-08-09T00:13:17.512Z,16.82
2022-08-09T00:14:10.375Z,16.79
2022-08-09T00:15:14.570Z,16.75
2022-08-09T00:16:09.606Z,16.71
2022-08-09T00:17:09.725Z,16.68
2022-08-09T00:18:12.499Z,16.66
2022-08-09T00:19:10.388Z,16.63
2022-08-09T00:20:12.174Z,16.62
2022-08-09T00:21:10.215Z,16.60
2022-08-09T00:22:10.345Z,16.58
2022-08-09T00:23:57.632Z,16.57
2022-08-09T00:24:11.705Z,16.55
2022-08-09T00:25:12.821Z,16.53
2022-08-09T00:26:11.356Z,16.51
2022-08-09T00:27:10.988Z,16.50
2022-08-09T00:28:11.126Z,16.48
2022-08-09T00:29:12.592Z,16.47
2022-08-09T00:30:23.709Z,16.46
2022-08-09T00:31:57.622Z,16.44
2022-08-09T00:32:12.847Z,16.41
2022-08-09T00:33:11.753Z,16.40
2022-08-09T00:34:12.074Z,16.38
2022-08-09T00:35:12.012Z,16.38
2022-08-09T00:36:12.164Z,16.37
2022-08-09T00:37:12.309Z,16.36
2022-08-09T00:38:12.412Z,16.36
2022-08-09T00:40:01.971Z,16.35
2022-08-09T00:40:17.260Z,16.34
2022-08-09T00:44:08.233Z,16.32
2022-08-09T00:44:14.505Z,16.29
2022-08-09T00:44:14.998Z,16.31
2022-08-09T00:44:27.508Z,16.28
2022-08-09T00:45:15.775Z,16.27
2022-08-09T00:46:14.521Z,16.26
2022-08-09T00:47:15.366Z,16.25
2022-08-09T00:48:15.453Z,16.23
2022-08-09T00:49:14.760Z,16.22
2022-08-09T00:50:14.492Z,16.21
2022-08-09T00:51:14.002Z,16.20
2022-08-09T00:52:15.996Z,16.20
2022-08-09T00:53:14.729Z,16.20
2022-08-09T00:54:14.328Z,16.19
2022-08-09T00:55:32.887Z,16.19
2022-08-09T00:56:15.612Z,16.17
2022-08-09T00:57:24.816Z,16.16
2022-08-09T00:58:25.421Z,16.15
2022-08-09T00:59:20.211Z,16.13
2022-08-09T01:00:22.011Z,16.12
2022-08-09T01:01:16.434Z,16.10
2022-08-09T01:02:15.318Z,16.10
2022-08-09T01:03:15.539Z,16.09
2022-08-09T01:04:15.636Z,16.09
2022-08-09T01:05:21.982Z,16.08
2022-08-09T01:06:18.381Z,16.08
2022-08-09T01:07:15.984Z,16.06
2022-08-09T01:08:16.187Z,16.05
2022-08-09T01:09:16.377Z,16.04
2022-08-09T01:10:16.505Z,16.03
2022-08-09T01:11:16.515Z,16.02
2022-08-09T01:12:16.599Z,16.01
2022-08-09T01:13:17.022Z,16.00
2022-08-09T01:14:16.956Z,15.99
2022-08-09T01:15:17.653Z,15.98
2022-08-09T01:16:17.126Z,15.97
2022-08-09T01:17:17.911Z,15.95
2022-08-09T01:18:17.366Z,15.94
2022-08-09T01:19:40.233Z,15.93
2022-08-09T01:20:18.608Z,15.91
2022-08-09T01:21:17.725Z,15.89
2022-08-09T01:22:17.975Z,15.88
2022-08-09T01:24:02.324Z,15.87
2022-08-09T01:24:19.122Z,15.86
2022-08-09T01:25:19.041Z,15.85
2022-08-09T01:26:18.387Z,15.84
2022-08-09T01:27:18.653Z,15.83
2022-08-09T01:28:18.584Z,15.82
2022-08-09T01:29:18.733Z,15.81
2022-08-09T01:30:35.408Z,15.81
2022-08-09T01:32:29.101Z,15.80
2022-08-09T01:32:30.994Z,15.78
2022-08-09T01:33:20.219Z,15.76
2022-08-09T01:34:19.342Z,15.75
2022-08-09T01:35:38.047Z,15.74
2022-08-09T01:36:20.562Z,15.72
2022-08-09T01:37:42.818Z,15.71
2022-08-09T01:38:20.851Z,15.69
2022-08-09T01:39:19.970Z,15.68
2022-08-09T01:40:23.338Z,15.67
2022-08-09T01:41:25.991Z,15.66
2022-08-09T01:42:21.253Z,15.65
2022-08-09T01:43:20.391Z,15.65
2022-08-09T01:44:20.511Z,15.64
2022-08-09T01:45:20.650Z,15.63
2022-08-09T01:46:25.068Z,15.63
2022-08-09T01:47:21.909Z,15.62
2022-08-09T01:48:29.502Z,15.62
2022-08-09T01:49:24.333Z,15.61
2022-08-09T01:50:21.289Z,15.60
2022-08-09T01:51:23.003Z,15.59
2022-08-09T01:52:21.500Z,15.58
2022-08-09T01:53:21.679Z,15.57
2022-08-09T01:54:21.728Z,15.56
2022-08-09T01:55:21.877Z,15.56
2022-08-09T01:56:22.052Z,15.55
2022-08-09T01:57:22.077Z,15.55
2022-08-09T01:58:23.938Z,15.55
2022-08-09T01:59:23.029Z,15.54
2022-08-09T02:00:35.501Z,15.53
2022-08-09T02:01:30.443Z,15.51
2022-08-09T02:02:23.773Z,15.49
2022-08-09T02:03:24.015Z,15.47
2022-08-09T02:04:22.945Z,15.45
2022-08-09T02:05:38.170Z,15.44
2022-08-09T02:06:24.193Z,15.42
2022-08-09T02:08:38.531Z,15.41
2022-08-09T02:08:41.186Z,15.39
2022-08-09T02:09:24.557Z,15.37
2022-08-09T02:10:29.919Z,15.35
2022-08-09T02:11:24.762Z,15.34
2022-08-09T02:12:24.895Z,15.33
2022-08-09T02:13:26.076Z,15.32
2022-08-09T02:14:26.642Z,15.31
2022-08-09T02:15:24.434Z,15.30
2022-08-09T02:16:33.803Z,15.29
2022-08-09T02:18:00.625Z,15.29
2022-08-09T02:18:25.605Z,15.28
2022-08-09T02:19:24.729Z,15.27
2022-08-09T02:20:32.502Z,15.27
2022-08-09T02:21:25.973Z,15.26
2022-08-09T02:22:27.387Z,15.25
2022-08-09T02:23:26.202Z,15.24
2022-08-09T02:24:26.879Z,15.23
2022-08-09T02:25:25.593Z,15.22
2022-08-09T02:26:27.319Z,15.22
2022-08-09T02:27:42.997Z,15.21
2022-08-09T02:28:26.821Z,15.20
2022-08-09T02:29:25.981Z,15.19
2022-08-09T02:30:26.501Z,15.18
2022-08-09T02:31:26.201Z,15.18
2022-08-09T02:32:26.488Z,15.18
2022-08-09T02:33:37.998Z,15.18
2022-08-09T02:34:41.719Z,15.18
2022-08-09T02:36:01.604Z,15.17
2022-08-09T02:36:27.839Z,15.16
2022-08-09T02:37:31.610Z,15.15
2022-08-09T02:38:28.877Z,15.15
2022-08-09T02:39:33.372Z,15.14
2022-08-09T02:40:30.446Z,15.13
2022-08-09T02:41:27.481Z,15.12
2022-08-09T02:42:27.677Z,15.12
2022-08-09T02:43:28.697Z,15.11
2022-08-09T02:44:30.408Z,15.11
2022-08-09T02:45:28.816Z,15.10
2022-08-09T02:46:28.491Z,15.10
2022-08-09T02:47:28.178Z,15.09
2022-08-09T02:48:31.020Z,15.09
2022-08-09T02:49:38.932Z,15.08
2022-08-09T02:50:29.569Z,15.07
2022-08-09T02:51:28.637Z,15.06
2022-08-09T02:52:29.805Z,15.05
2022-08-09T02:53:30.135Z,15.04
2022-08-09T02:54:29.015Z,15.03
2022-08-09T02:55:46.642Z,15.02
2022-08-09T02:56:30.249Z,15.01
2022-08-09T02:57:29.391Z,15.00
2022-08-09T02:58:35.517Z,14.99
2022-08-09T02:59:36.274Z,14.98
2022-08-09T03:00:30.789Z,14.96
2022-08-09T03:01:58.675Z,14.95
2022-08-09T03:02:31.368Z,14.94
2022-08-09T03:04:12.612Z,14.93
2022-08-09T03:04:31.461Z,14.92
2022-08-09T03:05:34.187Z,14.91
2022-08-09T03:06:30.488Z,14.89
2022-08-09T03:07:30.601Z,14.88
2022-08-09T03:08:30.741Z,14.88
2022-08-09T03:09:33.535Z,14.87
2022-08-09T03:10:31.054Z,14.86
2022-08-09T03:12:05.874Z,14.85
2022-08-09T03:12:32.351Z,14.84
2022-08-09T03:13:43.400Z,14.82
2022-08-09T03:14:32.478Z,14.81
2022-08-09T03:16:04.562Z,14.79
2022-08-09T03:16:32.732Z,14.77
2022-08-09T03:17:31.862Z,14.75
2022-08-09T03:18:32.018Z,14.73
2022-08-09T03:19:58.790Z,14.70
2022-08-09T03:20:33.293Z,14.68
2022-08-09T03:21:39.473Z,14.65
2022-08-09T03:22:33.652Z,14.63
2022-08-09T03:23:33.654Z,14.60
2022-08-09T03:24:51.896Z,14.59
2022-08-09T03:25:58.200Z,14.57
2022-08-09T03:26:34.000Z,14.56
2022-08-09T03:27:44.619Z,14.55
2022-08-09T03:28:34.229Z,14.54
2022-08-09T03:29:35.585Z,14.53
2022-08-09T03:30:36.757Z,14.52
2022-08-09T03:31:33.620Z,14.51
2022-08-09T03:32:36.937Z,14.50
2022-08-09T03:33:53.519Z,14.49
2022-08-09T03:34:35.147Z,14.48
2022-08-09T03:36:11.522Z,14.47
2022-08-09T03:36:35.478Z,14.46
2022-08-09T03:37:55.605Z,14.46
2022-08-09T03:38:35.546Z,14.45
2022-08-09T03:39:38.066Z,14.45
2022-08-09T03:40:34.788Z,14.45
2022-08-09T03:41:44.755Z,14.45
2022-08-09T03:42:35.987Z,14.44
2022-08-09T03:43:36.465Z,14.44
2022-08-09T03:44:35.265Z,14.43
2022-08-09T03:46:05.422Z,14.43
2022-08-09T03:46:36.789Z,14.42
2022-08-09T03:47:39.817Z,14.42
2022-08-09T03:48:36.129Z,14.41
2022-08-09T03:49:36.033Z,14.41
2022-08-09T03:50:36.284Z,14.41
2022-08-09T03:51:56.443Z,14.40
2022-08-09T03:52:37.210Z,14.40
2022-08-09T03:53:37.090Z,14.39
2022-08-09T03:54:38.459Z,14.38
2022-08-09T03:55:40.939Z,14.38
2022-08-09T03:56:37.825Z,14.38
2022-08-09T03:57:44.782Z,14.37
2022-08-09T03:58:37.906Z,14.37
2022-08-09T03:59:52.885Z,14.37
2022-08-09T04:00:38.234Z,14.36
2022-08-09T04:01:37.289Z,14.36
2022-08-09T04:02:37.549Z,14.35
2022-08-09T04:03:46.112Z,14.34
2022-08-09T04:04:39.067Z,14.32
2022-08-09T04:05:40.536Z,14.30
2022-08-09T04:06:37.904Z,14.28
2022-08-09T04:07:52.537Z,14.26
2022-08-09T04:08:40.122Z,14.23
2022-08-09T04:09:41.750Z,14.21
2022-08-09T04:10:39.425Z,14.18
2022-08-09T04:11:38.574Z,14.16
2022-08-09T04:12:38.661Z,14.16
2022-08-09T04:14:37.179Z,14.16
2022-08-09T04:14:53.861Z,14.16
2022-08-09T04:16:17.269Z,14.15
2022-08-09T04:16:40.199Z,14.14
2022-08-09T04:17:39.521Z,14.14
2022-08-09T04:18:39.464Z,14.13
2022-08-09T04:19:50.768Z,14.13
2022-08-09T04:20:40.651Z,14.12
2022-08-09T04:21:40.224Z,14.11
2022-08-09T04:22:41.102Z,14.11
2022-08-09T04:23:40.110Z,14.11
2022-08-09T04:24:41.201Z,14.10
2022-08-09T04:25:40.271Z,14.10
2022-08-09T04:26:40.434Z,14.10
2022-08-09T04:27:40.557Z,14.10
2022-08-09T04:28:42.315Z,14.10
2022-08-09T04:29:49.517Z,14.10
2022-08-09T04:30:44.855Z,14.09
2022-08-09T04:31:47.250Z,14.08
2022-08-09T04:32:46.645Z,14.07
2022-08-09T04:33:53.082Z,14.06
2022-08-09T04:34:47.705Z,14.06
2022-08-09T04:35:42.532Z,14.06
2022-08-09T04:36:50.226Z,14.06
2022-08-09T04:37:46.231Z,14.06
2022-08-09T04:38:41.868Z,14.06
2022-08-09T04:39:42.151Z,14.06
2022-08-09T04:40:43.154Z,14.06
2022-08-09T04:41:43.733Z,14.07
2022-08-09T04:42:42.434Z,14.07
2022-08-09T04:43:46.541Z,14.08
2022-08-09T04:44:49.332Z,14.09
2022-08-09T04:45:53.968Z,14.09
2022-08-09T04:46:58.734Z,14.09
2022-08-09T04:47:59.189Z,14.09
2022-08-09T04:48:50.505Z,14.09
2022-08-09T04:49:55.020Z,14.09
2022-08-09T04:50:44.503Z,14.09
2022-08-09T04:51:43.521Z,14.09
2022-08-09T04:52:43.661Z,14.10
2022-08-09T04:53:43.757Z,14.12
2022-08-09T04:54:43.935Z,14.14
2022-08-09T04:55:58.857Z,14.15
2022-08-09T04:56:45.188Z,14.16
2022-08-09T04:57:54.346Z,14.17
2022-08-09T04:58:45.413Z,14.18
2022-08-09T04:59:44.546Z,14.19
2022-08-09T05:00:45.700Z,14.19
2022-08-09T05:01:44.789Z,14.20
2022-08-09T05:02:48.759Z,14.21
2022-08-09T05:03:46.109Z,14.22
2022-08-09T05:04:45.122Z,14.22
2022-08-09T05:05:51.988Z,14.23
2022-08-09T05:06:46.461Z,14.23
2022-08-09T05:07:46.429Z,14.23
2022-08-09T05:08:48.044Z,14.24
2022-08-09T05:09:49.906Z,14.25
2022-08-09T05:10:45.830Z,14.26
2022-08-09T05:11:45.948Z,14.28
2022-08-09T05:12:46.150Z,14.30
2022-08-09T05:13:46.198Z,14.33
2022-08-09T05:14:46.320Z,14.35
2022-08-09T05:15:47.967Z,14.38
2022-08-09T05:16:58.919Z,14.41
2022-08-09T05:18:42.604Z,14.44
2022-08-09T05:18:58.309Z,14.47
2022-08-09T05:19:47.888Z,14.51
2022-08-09T05:20:48.019Z,14.55
2022-08-09T05:21:55.739Z,14.60
2022-08-09T05:23:55.492Z,14.66
2022-08-09T05:24:00.973Z,14.72
2022-08-09T05:24:48.492Z,14.79
2022-08-09T05:25:50.875Z,14.87
2022-08-09T05:26:47.923Z,14.94
2022-08-09T05:27:48.173Z,15.03
2022-08-09T05:28:47.957Z,15.12
2022-08-09T05:29:48.096Z,15.21
2022-08-09T05:30:48.267Z,15.30
2022-08-09T05:31:56.443Z,15.39
2022-08-09T05:32:50.770Z,15.48
2022-08-09T05:33:48.595Z,15.56
2022-08-09T05:34:48.732Z,15.64
2022-08-09T05:35:50.798Z,15.72
2022-08-09T05:36:49.113Z,15.80
2022-08-09T05:37:50.302Z,15.88
2022-08-09T05:38:49.186Z,15.96
2022-08-09T05:39:49.324Z,16.03
2022-08-09T05:40:50.570Z,16.11
2022-08-09T05:41:49.584Z,16.17
2022-08-09T05:42:49.625Z,16.24
2022-08-09T05:43:49.775Z,16.31
2022-08-09T05:44:50.932Z,16.38
2022-08-09T05:45:55.825Z,16.45
2022-08-09T05:46:51.166Z,16.51
2022-08-09T05:47:52.503Z,16.57
2022-08-09T05:48:58.857Z,16.64
2022-08-09T05:50:25.685Z,16.70
2022-08-09T05:51:12.014Z,16.77
2022-08-09T05:51:51.753Z,16.84
2022-08-09T05:52:53.409Z,16.92
2022-08-09T05:53:56.665Z,17.00
2022-08-09T05:54:52.173Z,17.06
2022-08-09T05:55:51.281Z,17.13
2022-08-09T05:56:54.662Z,17.20
2022-08-09T05:57:56.420Z,17.27
2022-08-09T05:58:56.132Z,17.34
2022-08-09T05:59:52.800Z,17.41
2022-08-09T06:00:51.940Z,17.50
2022-08-09T06:01:52.062Z,17.58
2022-08-09T06:02:54.071Z,17.67
2022-08-09T06:03:58.538Z,17.74
2022-08-09T06:04:53.400Z,17.81
2022-08-09T06:06:04.739Z,17.88
2022-08-09T06:06:53.619Z,17.94
2022-08-09T06:08:05.348Z,18.02
2022-08-09T06:08:53.969Z,18.09
2022-08-09T06:09:55.030Z,18.16
2022-08-09T06:10:54.130Z,18.23
2022-08-09T06:11:57.356Z,18.30
2022-08-09T06:13:02.784Z,18.37
2022-08-09T06:13:54.568Z,18.44
2022-08-09T06:14:53.661Z,18.52
2022-08-09T06:15:53.781Z,18.59
2022-08-09T06:16:53.918Z,18.65
2022-08-09T06:17:54.029Z,18.70
2022-08-09T06:18:54.308Z,18.73
2022-08-09T06:19:54.247Z,18.76
2022-08-09T06:20:57.325Z,18.81
2022-08-09T06:21:58.412Z,18.84
2022-08-09T06:22:54.601Z,18.88
2022-08-09T06:24:01.161Z,18.93
2022-08-09T06:24:56.017Z,18.99
2022-08-09T06:26:00.208Z,19.05
2022-08-09T06:26:55.125Z,19.10
2022-08-09T06:27:55.266Z,19.14
2022-08-09T06:29:00.944Z,19.20
2022-08-09T06:30:04.483Z,19.26
2022-08-09T06:30:56.614Z,19.33
2022-08-09T06:32:09.056Z,19.41
2022-08-09T06:33:00.365Z,19.48
2022-08-09T06:33:57.188Z,19.54
2022-08-09T06:34:56.048Z,19.62
2022-08-09T06:35:58.252Z,19.71
2022-08-09T06:36:57.224Z,19.78
2022-08-09T06:38:05.869Z,19.83
2022-08-09T06:38:57.701Z,19.88
2022-08-09T06:39:59.730Z,19.96
2022-08-09T06:40:56.825Z,20.05
2022-08-09T06:42:08.868Z,20.15
2022-08-09T06:42:58.049Z,20.23
2022-08-09T06:43:57.223Z,20.29
2022-08-09T06:44:57.549Z,20.35
2022-08-09T06:46:06.337Z,20.39
2022-08-09T06:46:58.541Z,20.42
2022-08-09T06:47:58.002Z,20.46
2022-08-09T06:49:00.192Z,20.52
2022-08-09T06:50:13.449Z,20.56
2022-08-09T06:50:59.128Z,20.59
2022-08-09T06:51:58.153Z,20.63
2022-08-09T06:52:58.294Z,20.69
2022-08-09T06:54:01.024Z,20.77
2022-08-09T06:54:58.608Z,20.87
2022-08-09T06:55:58.636Z,20.97
2022-08-09T06:56:58.746Z,21.07
2022-08-09T06:58:01.524Z,21.16
2022-08-09T07:00:50.759Z,21.28
2022-08-09T07:00:52.111Z,21.24
2022-08-09T07:01:00.490Z,21.30
2022-08-09T07:02:04.555Z,21.35
2022-08-09T07:03:00.473Z,21.42
2022-08-09T07:04:03.695Z,21.52
2022-08-09T07:04:59.829Z,21.61
2022-08-09T07:06:03.625Z,21.69
2022-08-09T07:07:01.020Z,21.78
2022-08-09T07:08:01.930Z,21.85
2022-08-09T07:09:00.262Z,21.91
2022-08-09T07:10:17.917Z,21.95
2022-08-09T07:11:01.622Z,21.97
2022-08-09T07:12:00.713Z,22.00
2022-08-09T07:13:18.717Z,22.06
2022-08-09T07:14:05.516Z,22.12
2022-08-09T07:15:53.121Z,22.14
2022-08-09T07:16:41.285Z,22.18
2022-08-09T07:17:02.362Z,22.20
2022-08-09T07:18:03.097Z,22.22
2022-08-09T07:19:01.483Z,22.26
2022-08-09T07:20:01.652Z,22.27
2022-08-09T07:21:01.863Z,22.28
2022-08-09T07:22:02.036Z,22.33
2022-08-09T07:23:02.020Z,22.42
2022-08-09T07:24:03.144Z,22.52
2022-08-09T07:25:02.261Z,22.64
2022-08-09T07:26:02.986Z,22.75
2022-08-09T07:27:02.581Z,22.81
2022-08-09T07:28:04.240Z,22.85
2022-08-09T07:29:12.203Z,22.92
2022-08-09T07:30:03.939Z,22.99
2022-08-09T07:31:03.051Z,23.08
2022-08-09T07:32:03.164Z,23.20
2022-08-09T07:33:10.358Z,23.30
2022-08-09T07:34:04.583Z,23.37
2022-08-09T07:35:08.218Z,23.44
2022-08-09T07:36:04.709Z,23.51
2022-08-09T07:37:03.833Z,23.60
2022-08-09T07:38:03.952Z,23.70
2022-08-09T07:39:04.092Z,23.81
2022-08-09T07:40:05.333Z,23.90
2022-08-09T07:41:13.154Z,24.00
2022-08-09T07:42:05.441Z,24.11
2022-08-09T07:43:14.832Z,24.21
2022-08-09T07:44:05.690Z,24.31
2022-08-09T07:45:14.951Z,24.39
2022-08-09T07:46:05.983Z,24.43
2022-08-09T07:47:05.120Z,24.48
2022-08-09T07:48:05.441Z,24.55
2022-08-09T07:49:05.299Z,24.62
2022-08-09T07:50:08.571Z,24.68
2022-08-09T07:52:02.701Z,24.68
2022-08-09T07:52:17.024Z,24.64
2022-08-09T07:53:07.050Z,24.60
2022-08-09T07:54:07.376Z,24.57
2022-08-09T07:55:09.113Z,24.55
2022-08-09T07:56:06.744Z,24.51
2022-08-09T07:57:11.747Z,24.45
2022-08-09T07:58:13.201Z,24.39
2022-08-09T07:59:15.784Z,24.34
2022-08-09T08:00:08.954Z,24.30
2022-08-09T08:01:11.086Z,24.32
2022-08-09T08:02:07.343Z,24.41
2022-08-09T08:03:08.419Z,24.56
2022-08-09T08:04:10.573Z,24.72
2022-08-09T08:05:18.884Z,24.85
2022-08-09T08:06:08.498Z,24.96
2022-08-09T08:07:09.302Z,25.06
2022-08-09T08:09:01.720Z,25.13
2022-08-09T08:09:34.417Z,25.14
2022-08-09T08:10:10.757Z,25.14
2022-08-09T08:12:09.917Z,25.17
2022-08-09T08:12:27.440Z,25.18
2022-08-09T08:13:10.278Z,25.18
2022-08-09T08:14:08.890Z,25.19
2022-08-09T08:15:08.593Z,25.17
2022-08-09T08:16:09.331Z,25.13
2022-08-09T08:17:12.099Z,25.12
2022-08-09T08:18:10.088Z,25.15
2022-08-09T08:19:09.063Z,25.25
2022-08-09T08:20:12.884Z,25.39
2022-08-09T08:21:09.270Z,25.53
2022-08-09T08:22:09.406Z,25.67
2022-08-09T08:23:16.703Z,25.75
2022-08-09T08:24:11.518Z,25.77
2022-08-09T08:25:13.516Z,25.74
2022-08-09T08:26:11.509Z,25.69
2022-08-09T08:27:16.491Z,25.69
2022-08-09T08:28:11.106Z,25.77
2022-08-09T08:29:10.196Z,25.87
2022-08-09T08:30:11.042Z,25.95
2022-08-09T08:31:14.867Z,25.97
2022-08-09T08:32:12.399Z,25.98
2022-08-09T08:33:11.912Z,26.02
2022-08-09T08:34:11.816Z,26.04
2022-08-09T08:35:11.025Z,26.08
2022-08-09T08:36:12.344Z,26.15
2022-08-09T08:37:15.645Z,26.25
2022-08-09T08:38:11.896Z,26.32
2022-08-09T08:39:11.500Z,26.27
2022-08-09T08:40:11.578Z,26.18
2022-08-09T08:41:11.767Z,26.14
2022-08-09T08:42:11.961Z,26.17
2022-08-09T08:43:13.738Z,26.21
2022-08-09T08:44:13.713Z,26.22
2022-08-09T08:45:13.832Z,26.24
2022-08-09T08:46:33.654Z,26.24
2022-08-09T08:47:13.556Z,26.25
2022-08-09T08:48:19.348Z,26.31
2022-08-09T08:49:19.162Z,26.34
2022-08-09T08:50:13.815Z,26.31
2022-08-09T08:51:12.954Z,26.33
2022-08-09T08:52:24.409Z,26.40
2022-08-09T08:53:16.118Z,26.49
2022-08-09T08:54:20.522Z,26.59
2022-08-09T08:55:15.274Z,26.60
2022-08-09T08:56:24.944Z,26.55
2022-08-09T08:57:14.663Z,26.54
2022-08-09T08:58:13.943Z,26.56
2022-08-09T08:59:19.088Z,26.63
2022-08-09T09:00:20.975Z,26.69
2022-08-09T09:01:20.784Z,26.65
2022-08-09T09:02:30.664Z,26.54
2022-08-09T09:03:20.813Z,26.44
2022-08-09T09:04:15.573Z,26.39
2022-08-09T09:05:16.522Z,26.36
2022-08-09T09:06:21.013Z,26.38
2022-08-09T09:07:14.955Z,26.43
2022-08-09T09:08:31.124Z,26.50
2022-08-09T09:09:20.985Z,26.54
2022-08-09T09:10:16.337Z,26.54
2022-08-09T09:11:19.262Z,26.54
2022-08-09T09:12:16.635Z,26.51
2022-08-09T09:13:15.755Z,26.43
2022-08-09T09:14:15.918Z,26.36
2022-08-09T09:15:28.607Z,26.36
2022-08-09T09:16:17.003Z,26.41
2022-08-09T09:17:16.481Z,26.44
2022-08-09T09:18:16.421Z,26.43
2022-08-09T09:19:39.356Z,26.45
2022-08-09T09:20:17.512Z,26.50
2022-08-09T09:21:16.680Z,26.55
2022-08-09T09:22:23.831Z,26.62
2022-08-09T09:23:18.061Z,26.71
2022-08-09T09:24:21.833Z,26.82
2022-08-09T09:26:03.411Z,26.90
2022-08-09T09:26:18.470Z,26.96
2022-08-09T09:28:03.145Z,27.00
2022-08-09T09:28:39.106Z,26.99
2022-08-09T09:29:19.035Z,26.94
2022-08-09T09:30:38.260Z,26.88
2022-08-09T09:32:07.103Z,26.85
2022-08-09T09:32:19.175Z,26.86
2022-08-09T09:33:19.282Z,26.93
2022-08-09T09:34:18.838Z,27.00
2022-08-09T09:35:18.448Z,26.98
2022-08-09T09:36:20.343Z,26.96
2022-08-09T09:37:18.712Z,26.96
2022-08-09T09:38:36.465Z,26.97
2022-08-09T09:39:20.138Z,26.97
2022-08-09T09:40:19.097Z,27.00
2022-08-09T09:41:19.207Z,27.08
2022-08-09T09:42:19.326Z,27.11
2022-08-09T09:43:19.567Z,27.11
2022-08-09T09:44:25.870Z,27.12
2022-08-09T09:45:25.785Z,27.16
2022-08-09T09:47:21.304Z,27.33
2022-08-09T09:48:20.077Z,27.44
2022-08-09T09:49:32.060Z,27.53
2022-08-09T09:50:23.204Z,27.62
2022-08-09T09:51:26.105Z,27.70
2022-08-09T09:52:36.450Z,27.75
2022-08-09T09:53:21.675Z,27.80
2022-08-09T09:54:21.865Z,27.82
2022-08-09T09:55:32.340Z,27.83
2022-08-09T09:56:31.397Z,27.80
2022-08-09T09:58:00.499Z,27.77
2022-08-09T09:58:24.449Z,27.75
2022-08-09T09:59:21.475Z,27.73
2022-08-09T10:00:22.056Z,27.71
2022-08-09T10:01:30.993Z,27.61
2022-08-09T10:02:22.825Z,27.45
2022-08-09T10:03:22.287Z,27.36
2022-08-09T10:04:22.918Z,27.28
2022-08-09T10:05:27.191Z,27.16
2022-08-09T10:06:23.312Z,27.08
2022-08-09T10:07:24.020Z,27.06
2022-08-09T10:08:27.429Z,27.07
2022-08-09T10:09:23.993Z,27.13
2022-08-09T10:10:22.833Z,27.24
2022-08-09T10:11:54.016Z,27.34
2022-08-09T10:12:28.567Z,27.44
2022-08-09T10:13:42.788Z,27.51
2022-08-09T10:14:30.810Z,27.56
2022-08-09T10:15:51.149Z,27.56
2022-08-09T10:16:57.864Z,27.56
2022-08-09T10:17:51.489Z,27.52
2022-08-09T10:18:24.781Z,27.43
2022-08-09T10:19:23.903Z,27.35
2022-08-09T10:20:31.804Z,27.28
2022-08-09T10:21:25.131Z,27.22
2022-08-09T10:22:29.576Z,27.22
2022-08-09T10:23:28.175Z,27.28
2022-08-09T10:24:25.567Z,27.37
2022-08-09T10:25:25.768Z,27.48
2022-08-09T10:26:26.809Z,27.60
2022-08-09T10:27:34.699Z,27.68
2022-08-09T10:28:26.055Z,27.74
2022-08-09T10:30:22.147Z,27.81
2022-08-09T10:32:20.920Z,27.86
2022-08-09T10:32:39.977Z,28.02
2022-08-09T10:34:07.934Z,28.14
2022-08-09T10:34:33.582Z,28.21
2022-08-09T10:35:26.939Z,28.27
2022-08-09T10:36:26.137Z,28.36
2022-08-09T10:37:26.119Z,28.48
2022-08-09T10:38:33.787Z,28.57
2022-08-09T10:39:28.701Z,28.60
2022-08-09T10:40:34.765Z,28.63
2022-08-09T10:41:27.953Z,28.69
2022-08-09T10:42:26.900Z,28.72
2022-08-09T10:43:26.857Z,28.68
2022-08-09T10:44:27.956Z,28.59
2022-08-09T10:45:31.836Z,28.56
2022-08-09T10:46:28.337Z,28.54
2022-08-09T10:48:20.439Z,28.48
2022-08-09T10:48:31.041Z,28.43
2022-08-09T10:49:50.922Z,28.40
2022-08-09T10:50:31.395Z,28.30
2022-08-09T10:51:29.797Z,28.21
2022-08-09T10:52:29.063Z,28.15
2022-08-09T10:53:28.074Z,28.14
2022-08-09T10:54:28.212Z,28.20
2022-08-09T10:55:28.365Z,28.29
2022-08-09T10:56:28.525Z,28.40
2022-08-09T10:57:28.642Z,28.50
2022-08-09T10:58:28.861Z,28.60
2022-08-09T10:59:31.071Z,28.69
2022-08-09T11:00:29.006Z,28.80
2022-08-09T11:03:11.956Z,28.88
2022-08-09T11:03:27.339Z,28.80
2022-08-09T11:03:50.120Z,28.69
2022-08-09T11:04:32.536Z,28.62
2022-08-09T11:05:31.087Z,28.61
2022-08-09T11:06:29.760Z,28.66
2022-08-09T11:07:57.832Z,28.70
2022-08-09T11:08:33.240Z,28.73
2022-08-09T11:09:32.520Z,28.76
2022-08-09T11:10:30.208Z,28.81
2022-08-09T11:11:30.358Z,28.84
2022-08-09T11:12:30.597Z,28.86
2022-08-09T11:13:54.133Z,28.89
2022-08-09T11:14:32.247Z,28.89
2022-08-09T11:15:34.164Z,28.90
2022-08-09T11:16:35.730Z,28.91
2022-08-09T11:17:31.308Z,28.84
2022-08-09T11:18:31.447Z,28.70
2022-08-09T11:20:12.109Z,28.59
2022-08-09T11:20:32.556Z,28.57
2022-08-09T11:21:31.683Z,28.62
2022-08-09T11:22:31.807Z,28.70
2022-08-09T11:23:31.981Z,28.80
2022-08-09T11:24:32.005Z,28.90
2022-08-09T11:25:44.834Z,28.98
2022-08-09T11:26:33.306Z,29.01
2022-08-09T11:28:03.942Z,29.01
2022-08-09T11:28:33.801Z,28.99
2022-08-09T11:30:04.512Z,29.01
2022-08-09T11:30:34.664Z,28.99
2022-08-09T11:31:34.221Z,28.90
2022-08-09T11:32:33.329Z,28.83
2022-08-09T11:33:33.163Z,28.83
2022-08-09T11:34:33.378Z,28.84
2022-08-09T11:35:35.177Z,28.80
2022-08-09T11:36:35.919Z,28.64
2022-08-09T11:37:40.807Z,28.47
2022-08-09T11:38:35.108Z,28.35
2022-08-09T11:39:38.602Z,28.28
2022-08-09T11:40:34.062Z,28.22
2022-08-09T11:41:37.692Z,28.24
2022-08-09T11:42:35.291Z,28.36
2022-08-09T11:43:34.391Z,28.49
2022-08-09T11:44:34.561Z,28.63
2022-08-09T11:45:42.560Z,28.74
2022-08-09T11:46:35.803Z,28.83
2022-08-09T11:47:35.228Z,28.90
2022-08-09T11:48:35.914Z,28.94
2022-08-09T11:49:42.827Z,28.97
2022-08-09T11:50:55.533Z,29.04
2022-08-09T11:53:02.417Z,28.94
2022-08-09T11:53:15.906Z,29.00
2022-08-09T11:54:01.274Z,28.95
2022-08-09T11:54:36.771Z,29.00
2022-08-09T11:55:53.569Z,29.01
2022-08-09T11:56:42.761Z,29.00
2022-08-09T11:58:00.662Z,28.95
2022-08-09T11:58:37.254Z,28.93
2022-08-09T11:59:36.357Z,29.02
2022-08-09T12:00:36.548Z,29.10
2022-08-09T12:02:15.894Z,29.14
2022-08-09T12:02:39.670Z,29.11
2022-08-09T12:03:54.896Z,29.01
2022-08-09T12:04:38.298Z,28.92
2022-08-09T12:05:39.566Z,28.89
2022-08-09T12:06:37.257Z,28.91
2022-08-09T12:07:42.305Z,28.98
2022-08-09T12:08:38.567Z,29.09
2022-08-09T12:09:37.606Z,29.23
2022-08-09T12:10:39.850Z,29.39
2022-08-09T12:12:02.407Z,29.54
2022-08-09T12:12:39.154Z,29.68
2022-08-09T12:14:10.790Z,29.79
2022-08-09T12:14:58.977Z,29.81
2022-08-09T12:15:50.404Z,29.77
2022-08-09T12:16:39.938Z,29.77
2022-08-09T12:17:43.567Z,29.80
2022-08-09T12:18:39.716Z,29.84
2022-08-09T12:19:40.059Z,29.88
2022-08-09T12:20:38.954Z,29.86
2022-08-09T12:21:48.810Z,29.81
2022-08-09T12:22:40.204Z,29.79
2022-08-09T12:23:56.568Z,29.75
2022-08-09T12:24:40.574Z,29.72
2022-08-09T12:25:49.482Z,29.71
2022-08-09T12:26:40.673Z,29.69
2022-08-09T12:29:13.892Z,29.66
2022-08-09T12:29:14.710Z,29.63
2022-08-09T12:29:52.694Z,29.63
2022-08-09T12:30:41.234Z,29.65
2022-08-09T12:31:58.875Z,29.74
2022-08-09T12:32:41.451Z,29.85
2022-08-09T12:33:59.462Z,29.95
2022-08-09T12:34:41.783Z,30.04
2022-08-09T12:35:42.843Z,30.13
2022-08-09T12:36:40.912Z,30.22
2022-08-09T12:37:50.741Z,30.31
2022-08-09T12:38:42.162Z,30.31
2022-08-09T12:39:41.319Z,30.21
2022-08-09T12:40:41.421Z,30.12
2022-08-09T12:41:41.510Z,30.08
2022-08-09T12:42:41.673Z,30.08
2022-08-09T12:44:07.093Z,30.06
2022-08-09T12:44:42.881Z,30.03
2022-08-09T12:45:43.153Z,30.01
2022-08-09T12:46:43.123Z,30.03
2022-08-09T12:47:50.116Z,30.08
2022-08-09T12:48:43.370Z,30.09
2022-08-09T12:49:50.931Z,30.09
2022-08-09T12:50:43.771Z,30.13
2022-08-09T12:52:01.540Z,30.18
2022-08-09T12:53:08.218Z,30.14
2022-08-09T12:53:44.881Z,30.06
2022-08-09T12:54:44.150Z,29.99
2022-08-09T12:56:14.498Z,29.99